Aviation Digital Data Service (ADDS)

Output produced by METARs form (0324 UTC 19 August 2019)
found at http://www.aviationweather.gov/metar/data/
 
METAR text: KTCL 190253Z AUTO 00000KT 10SM CLR 29/22 A2996 RMK AO2 SLP143 T02940222 53008 $
Conditions at: KTCL (TUSCALOOSA , AL, US) observed 0253 UTC 19 August 2019
Temperature: 29.4°C (85°F)
Dewpoint: 22.2°C (72°F) [RH = 65%]
Pressure (altimeter): 29.96 inches Hg (1014.6 mb)
[Sea-level pressure: 1014.3 mb]
Winds: calm
Visibility: 10 or more miles (16+ km)
Ceiling: at least 12,000 feet AGL
Clouds: sky clear below 12,000 feet AGL
Weather:
SOME DATA ABOVE MAY BE INACCURATE!!!
"$" is an indication the sensor requires maintenance

METAR text: KTCL 190153Z AUTO 00000KT 10SM CLR 28/23 A2995 RMK AO2 SLP139 T02830228 $
Conditions at: KTCL (TUSCALOOSA , AL, US) observed 0153 UTC 19 August 2019
Temperature: 28.3°C (83°F)
Dewpoint: 22.8°C (73°F) [RH = 72%]
Pressure (altimeter): 29.95 inches Hg (1014.3 mb)
[Sea-level pressure: 1013.9 mb]
Winds: calm
Visibility: 10 or more miles (16+ km)
Ceiling: at least 12,000 feet AGL
Clouds: sky clear below 12,000 feet AGL
Weather:
SOME DATA ABOVE MAY BE INACCURATE!!!
"$" is an indication the sensor requires maintenance

METAR text: KTCL 190053Z 00000KT 10SM FEW002 29/23 A2994 RMK AO2 SLP137 T02940228 $
Conditions at: KTCL (TUSCALOOSA , AL, US) observed 0053 UTC 19 August 2019
Temperature: 29.4°C (85°F)
Dewpoint: 22.8°C (73°F) [RH = 68%]
Pressure (altimeter): 29.94 inches Hg (1014.0 mb)
[Sea-level pressure: 1013.7 mb]
Winds: calm
Visibility: 10 or more miles (16+ km)
Ceiling: at least 12,000 feet AGL
Clouds: few clouds at 200 feet AGL
Weather:
SOME DATA ABOVE MAY BE INACCURATE!!!
"$" is an indication the sensor requires maintenance

METAR text: KTCL 190026Z 00000KT 10SM SCT002 30/22 A2993 RMK AO2 T03000222 $
Conditions at: KTCL (TUSCALOOSA , AL, US) observed 0026 UTC 19 August 2019
Temperature: 30.0°C (86°F)
Dewpoint: 22.2°C (72°F) [RH = 63%]
Pressure (altimeter): 29.93 inches Hg (1013.6 mb)
Winds: calm
Visibility: 10 or more miles (16+ km)
Ceiling: at least 12,000 feet AGL
Clouds: scattered clouds at 200 feet AGL
Weather:
SOME DATA ABOVE MAY BE INACCURATE!!!
"$" is an indication the sensor requires maintenance

METAR text: KTCL 182353Z 00000KT 10SM CLR 32/22 A2994 RMK AO2 SLP135 T03170222 10372 20317 53004
Conditions at: KTCL (TUSCALOOSA , AL, US) observed 2353 UTC 18 August 2019
Temperature: 31.7°C (89°F)
Dewpoint: 22.2°C (72°F) [RH = 57%]
Pressure (altimeter): 29.94 inches Hg (1014.0 mb)
[Sea-level pressure: 1013.5 mb]
Winds: calm
Visibility: 10 or more miles (16+ km)
Ceiling: at least 12,000 feet AGL
Clouds: sky clear below 12,000 feet AGL
Weather: no significant weather observed at this time

METAR text: KTCL 182253Z 26006KT 10SM CLR 35/20 A2992 RMK AO2 SLP129 T03500200
Conditions at: KTCL (TUSCALOOSA , AL, US) observed 2253 UTC 18 August 2019
Temperature: 35.0°C (95°F)
Dewpoint: 20.0°C (68°F) [RH = 42%]
Pressure (altimeter): 29.92 inches Hg (1013.3 mb)
[Sea-level pressure: 1012.9 mb]
Winds: from the W (260 degrees) at 7 MPH (6 knots; 3.1 m/s)
Visibility: 10 or more miles (16+ km)
Ceiling: at least 12,000 feet AGL
Clouds: sky clear below 12,000 feet AGL
Weather: no significant weather observed at this time

METAR text: KTCL 182153Z 23008KT 10SM FEW080 37/19 A2993 RMK AO2 SLP133 T03670194
Conditions at: KTCL (TUSCALOOSA , AL, US) observed 2153 UTC 18 August 2019
Temperature: 36.7°C (98°F)
Dewpoint: 19.4°C (67°F) [RH = 37%]
Pressure (altimeter): 29.93 inches Hg (1013.6 mb)
[Sea-level pressure: 1013.3 mb]
Winds: from the SW (230 degrees) at 9 MPH (8 knots; 4.1 m/s)
Visibility: 10 or more miles (16+ km)
Ceiling: at least 12,000 feet AGL
Clouds: few clouds at 8000 feet AGL
Weather: no significant weather observed at this time

METAR text: KTCL 182053Z 27007KT 10SM FEW075 37/18 A2992 RMK AO2 SLP131 T03670183 56026
Conditions at: KTCL (TUSCALOOSA , AL, US) observed 2053 UTC 18 August 2019
Temperature: 36.7°C (98°F)
Dewpoint: 18.3°C (65°F) [RH = 34%]
Pressure (altimeter): 29.92 inches Hg (1013.3 mb)
[Sea-level pressure: 1013.1 mb]
Winds: from the W (270 degrees) at 8 MPH (7 knots; 3.6 m/s)
Visibility: 10 or more miles (16+ km)
Ceiling: at least 12,000 feet AGL
Clouds: few clouds at 7500 feet AGL
Weather: no significant weather observed at this time

METAR text: KTCL 181953Z 31006KT 10SM FEW090 37/18 A2994 RMK AO2 SLP135 T03670183
Conditions at: KTCL (TUSCALOOSA , AL, US) observed 1953 UTC 18 August 2019
Temperature: 36.7°C (98°F)
Dewpoint: 18.3°C (65°F) [RH = 34%]
Pressure (altimeter): 29.94 inches Hg (1014.0 mb)
[Sea-level pressure: 1013.5 mb]
Winds: from the NW (310 degrees) at 7 MPH (6 knots; 3.1 m/s)
Visibility: 10 or more miles (16+ km)
Ceiling: at least 12,000 feet AGL
Clouds: few clouds at 9000 feet AGL
Weather: no significant weather observed at this time

METAR text: KTCL 181853Z 18003KT 10SM CLR 37/19 A2997 RMK AO2 SLP146 T03670194
Conditions at: KTCL (TUSCALOOSA , AL, US) observed 1853 UTC 18 August 2019
Temperature: 36.7°C (98°F)
Dewpoint: 19.4°C (67°F) [RH = 37%]
Pressure (altimeter): 29.97 inches Hg (1015.0 mb)
[Sea-level pressure: 1014.6 mb]
Winds: from the S (180 degrees) at 3 MPH (3 knots; 1.5 m/s)
Visibility: 10 or more miles (16+ km)
Ceiling: at least 12,000 feet AGL
Clouds: sky clear below 12,000 feet AGL
Weather: no significant weather observed at this time

METAR text: KTCL 181753Z 17005KT 10SM CLR 36/19 A3000 RMK AO2 SLP157 T03560194 10361 20222 58003
Conditions at: KTCL (TUSCALOOSA , AL, US) observed 1753 UTC 18 August 2019
Temperature: 35.6°C (96°F)
Dewpoint: 19.4°C (67°F) [RH = 39%]
Pressure (altimeter): 30.00 inches Hg (1016.0 mb)
[Sea-level pressure: 1015.7 mb]
Winds: from the S (170 degrees) at 6 MPH (5 knots; 2.6 m/s)
Visibility: 10 or more miles (16+ km)
Ceiling: at least 12,000 feet AGL
Clouds: sky clear below 12,000 feet AGL
Weather: no significant weather observed at this time

METAR text: KTCL 181653Z 00000KT 10SM CLR 35/21 A3001 RMK AO2 SLP160 T03500211
Conditions at: KTCL (TUSCALOOSA , AL, US) observed 1653 UTC 18 August 2019
Temperature: 35.0°C (95°F)
Dewpoint: 21.1°C (70°F) [RH = 45%]
Pressure (altimeter): 30.01 inches Hg (1016.3 mb)
[Sea-level pressure: 1016.0 mb]
Winds: calm
Visibility: 10 or more miles (16+ km)
Ceiling: at least 12,000 feet AGL
Clouds: sky clear below 12,000 feet AGL
Weather: no significant weather observed at this time

METAR text: KTCL 181553Z 00000KT 10SM CLR 33/22 A3001 RMK AO2 SLP161 T03330217
Conditions at: KTCL (TUSCALOOSA , AL, US) observed 1553 UTC 18 August 2019
Temperature: 33.3°C (92°F)
Dewpoint: 21.7°C (71°F) [RH = 51%]
Pressure (altimeter): 30.01 inches Hg (1016.3 mb)
[Sea-level pressure: 1016.1 mb]
Winds: calm
Visibility: 10 or more miles (16+ km)
Ceiling: at least 12,000 feet AGL
Clouds: sky clear below 12,000 feet AGL
Weather: no significant weather observed at this time

METAR text: KTCL 181453Z 00000KT 10SM CLR 30/22 A3001 RMK AO2 SLP159 T03000217 51010
Conditions at: KTCL (TUSCALOOSA , AL, US) observed 1453 UTC 18 August 2019
Temperature: 30.0°C (86°F)
Dewpoint: 21.7°C (71°F) [RH = 61%]
Pressure (altimeter): 30.01 inches Hg (1016.3 mb)
[Sea-level pressure: 1015.9 mb]
Winds: calm
Visibility: 10 or more miles (16+ km)
Ceiling: at least 12,000 feet AGL
Clouds: sky clear below 12,000 feet AGL
Weather: no significant weather observed at this time

METAR text: KTCL 181353Z 00000KT 10SM CLR 27/22 A3000 RMK AO2 SLP156 T02720222
Conditions at: KTCL (TUSCALOOSA , AL, US) observed 1353 UTC 18 August 2019
Temperature: 27.2°C (81°F)
Dewpoint: 22.2°C (72°F) [RH = 74%]
Pressure (altimeter): 30.00 inches Hg (1016.0 mb)
[Sea-level pressure: 1015.6 mb]
Winds: calm
Visibility: 10 or more miles (16+ km)
Ceiling: at least 12,000 feet AGL
Clouds: sky clear below 12,000 feet AGL
Weather: no significant weather observed at this time

METAR text: KTCL 181253Z 00000KT 10SM CLR 26/22 A2999 RMK AO2 SLP154 T02560217
Conditions at: KTCL (TUSCALOOSA , AL, US) observed 1253 UTC 18 August 2019
Temperature: 25.6°C (78°F)
Dewpoint: 21.7°C (71°F) [RH = 79%]
Pressure (altimeter): 29.99 inches Hg (1015.7 mb)
[Sea-level pressure: 1015.4 mb]
Winds: calm
Visibility: 10 or more miles (16+ km)
Ceiling: at least 12,000 feet AGL
Clouds: sky clear below 12,000 feet AGL
Weather: no significant weather observed at this time

METAR text: KTCL 181153Z 00000KT 7SM CLR 22/21 A2998 RMK AO2 SLP150 T02220206 10239 20211 53009
Conditions at: KTCL (TUSCALOOSA , AL, US) observed 1153 UTC 18 August 2019
Temperature: 22.2°C (72°F)
Dewpoint: 20.6°C (69°F) [RH = 91%]
Pressure (altimeter): 29.98 inches Hg (1015.3 mb)
[Sea-level pressure: 1015.0 mb]
Winds: calm
Visibility: 7 miles (11 km)
Ceiling: at least 12,000 feet AGL
Clouds: sky clear below 12,000 feet AGL
Weather: no significant weather observed at this time

METAR text: KTCL 181053Z AUTO 00000KT 9SM CLR 22/20 A2997 RMK AO2 SLP144 T02170200
Conditions at: KTCL (TUSCALOOSA , AL, US) observed 1053 UTC 18 August 2019
Temperature: 21.7°C (71°F)
Dewpoint: 20.0°C (68°F) [RH = 90%]
Pressure (altimeter): 29.97 inches Hg (1015.0 mb)
[Sea-level pressure: 1014.4 mb]
Winds: calm
Visibility: 9 miles (14 km)
Ceiling: at least 12,000 feet AGL
Clouds: sky clear below 12,000 feet AGL
Weather: automated observation with no human augmentation;
there may or may not be significant weather present at this time

METAR text: KTCL 180953Z AUTO 06003KT 9SM CLR 22/21 A2995 RMK AO2 SLP140 T02220206
Conditions at: KTCL (TUSCALOOSA , AL, US) observed 0953 UTC 18 August 2019
Temperature: 22.2°C (72°F)
Dewpoint: 20.6°C (69°F) [RH = 91%]
Pressure (altimeter): 29.95 inches Hg (1014.3 mb)
[Sea-level pressure: 1014.0 mb]
Winds: from the ENE (60 degrees) at 3 MPH (3 knots; 1.5 m/s)
Visibility: 9 miles (14 km)
Ceiling: at least 12,000 feet AGL
Clouds: sky clear below 12,000 feet AGL
Weather: automated observation with no human augmentation;
there may or may not be significant weather present at this time

METAR text: KTCL 180853Z AUTO 00000KT 8SM CLR 22/21 A2995 RMK AO2 SLP140 T02170206 53003
Conditions at: KTCL (TUSCALOOSA , AL, US) observed 0853 UTC 18 August 2019
Temperature: 21.7°C (71°F)
Dewpoint: 20.6°C (69°F) [RH = 93%]
Pressure (altimeter): 29.95 inches Hg (1014.3 mb)
[Sea-level pressure: 1014.0 mb]
Winds: calm
Visibility: 8 miles (13 km)
Ceiling: at least 12,000 feet AGL
Clouds: sky clear below 12,000 feet AGL
Weather: automated observation with no human augmentation;
there may or may not be significant weather present at this time

METAR text: KTCL 180753Z AUTO 00000KT 10SM CLR 23/21 A2995 RMK AO2 SLP140 T02330211
Conditions at: KTCL (TUSCALOOSA , AL, US) observed 0753 UTC 18 August 2019
Temperature: 23.3°C (74°F)
Dewpoint: 21.1°C (70°F) [RH = 87%]
Pressure (altimeter): 29.95 inches Hg (1014.3 mb)
[Sea-level pressure: 1014.0 mb]
Winds: calm
Visibility: 10 or more miles (16+ km)
Ceiling: at least 12,000 feet AGL
Clouds: sky clear below 12,000 feet AGL
Weather: automated observation with no human augmentation;
there may or may not be significant weather present at this time

METAR text: KTCL 180653Z AUTO 00000KT 10SM CLR 23/21 A2994 RMK AO2 SLP134 T02330211
Conditions at: KTCL (TUSCALOOSA , AL, US) observed 0653 UTC 18 August 2019
Temperature: 23.3°C (74°F)
Dewpoint: 21.1°C (70°F) [RH = 87%]
Pressure (altimeter): 29.94 inches Hg (1014.0 mb)
[Sea-level pressure: 1013.4 mb]
Winds: calm
Visibility: 10 or more miles (16+ km)
Ceiling: at least 12,000 feet AGL
Clouds: sky clear below 12,000 feet AGL
Weather: automated observation with no human augmentation;
there may or may not be significant weather present at this time

METAR text: KTCL 180553Z AUTO 00000KT 10SM CLR 23/21 A2995 RMK AO2 SLP138 T02330211 10339 20233 403720189 50001
Conditions at: KTCL (TUSCALOOSA , AL, US) observed 0553 UTC 18 August 2019
Temperature: 23.3°C (74°F)
Dewpoint: 21.1°C (70°F) [RH = 87%]
Pressure (altimeter): 29.95 inches Hg (1014.3 mb)
[Sea-level pressure: 1013.8 mb]
Winds: calm
Visibility: 10 or more miles (16+ km)
Ceiling: at least 12,000 feet AGL
Clouds: sky clear below 12,000 feet AGL
Weather: automated observation with no human augmentation;
there may or may not be significant weather present at this time

METAR text: KTCL 180453Z AUTO 00000KT 10SM CLR 24/21 A2995 RMK AO2 SLP140 T02390206
Conditions at: KTCL (TUSCALOOSA , AL, US) observed 0453 UTC 18 August 2019
Temperature: 23.9°C (75°F)
Dewpoint: 20.6°C (69°F) [RH = 82%]
Pressure (altimeter): 29.95 inches Hg (1014.3 mb)
[Sea-level pressure: 1014.0 mb]
Winds: calm
Visibility: 10 or more miles (16+ km)
Ceiling: at least 12,000 feet AGL
Clouds: sky clear below 12,000 feet AGL
Weather: automated observation with no human augmentation;
there may or may not be significant weather present at this time

METAR text: KTCL 180353Z AUTO 18004KT 10SM CLR 24/21 A2995 RMK AO2 SLP138 T02390211
Conditions at: KTCL (TUSCALOOSA , AL, US) observed 0353 UTC 18 August 2019
Temperature: 23.9°C (75°F)
Dewpoint: 21.1°C (70°F) [RH = 84%]
Pressure (altimeter): 29.95 inches Hg (1014.3 mb)
[Sea-level pressure: 1013.8 mb]
Winds: from the S (180 degrees) at 5 MPH (4 knots; 2.1 m/s)
Visibility: 10 or more miles (16+ km)
Ceiling: at least 12,000 feet AGL
Clouds: sky clear below 12,000 feet AGL
Weather: automated observation with no human augmentation;
there may or may not be significant weather present at this time

METAR text: KTCL 180253Z AUTO 00000KT 10SM CLR 27/21 A2994 RMK AO2 SLP137 T02670211 53013
Conditions at: KTCL (TUSCALOOSA , AL, US) observed 0253 UTC 18 August 2019
Temperature: 26.7°C (80°F)
Dewpoint: 21.1°C (70°F) [RH = 71%]
Pressure (altimeter): 29.94 inches Hg (1014.0 mb)
[Sea-level pressure: 1013.7 mb]
Winds: calm
Visibility: 10 or more miles (16+ km)
Ceiling: at least 12,000 feet AGL
Clouds: sky clear below 12,000 feet AGL
Weather: automated observation with no human augmentation;
there may or may not be significant weather present at this time

METAR text: KTCL 180153Z AUTO 00000KT 10SM CLR 27/21 A2993 RMK AO2 SLP132 T02670206
Conditions at: KTCL (TUSCALOOSA , AL, US) observed 0153 UTC 18 August 2019
Temperature: 26.7°C (80°F)
Dewpoint: 20.6°C (69°F) [RH = 69%]
Pressure (altimeter): 29.93 inches Hg (1013.6 mb)
[Sea-level pressure: 1013.2 mb]
Winds: calm
Visibility: 10 or more miles (16+ km)
Ceiling: at least 12,000 feet AGL
Clouds: sky clear below 12,000 feet AGL
Weather: automated observation with no human augmentation;
there may or may not be significant weather present at this time

METAR text: KTCL 180053Z 31003KT 10SM CLR 29/22 A2991 RMK AO2 SLP127 T02890217
Conditions at: KTCL (TUSCALOOSA , AL, US) observed 0053 UTC 18 August 2019
Temperature: 28.9°C (84°F)
Dewpoint: 21.7°C (71°F) [RH = 65%]
Pressure (altimeter): 29.91 inches Hg (1013.0 mb)
[Sea-level pressure: 1012.7 mb]
Winds: from the NW (310 degrees) at 3 MPH (3 knots; 1.5 m/s)
Visibility: 10 or more miles (16+ km)
Ceiling: at least 12,000 feet AGL
Clouds: sky clear below 12,000 feet AGL
Weather: no significant weather observed at this time

METAR text: KTCL 172353Z 25004KT 10SM CLR 34/19 A2991 RMK AO2 SLP125 T03390189 10372 20339 58001
Conditions at: KTCL (TUSCALOOSA , AL, US) observed 2353 UTC 17 August 2019
Temperature: 33.9°C (93°F)
Dewpoint: 18.9°C (66°F) [RH = 41%]
Pressure (altimeter): 29.91 inches Hg (1013.0 mb)
[Sea-level pressure: 1012.5 mb]
Winds: from the WSW (250 degrees) at 5 MPH (4 knots; 2.1 m/s)
Visibility: 10 or more miles (16+ km)
Ceiling: at least 12,000 feet AGL
Clouds: sky clear below 12,000 feet AGL
Weather: no significant weather observed at this time

METAR text: KTCL 172253Z 24004KT 10SM CLR 36/19 A2990 RMK AO2 SLP124 T03560189
Conditions at: KTCL (TUSCALOOSA , AL, US) observed 2253 UTC 17 August 2019
Temperature: 35.6°C (96°F)
Dewpoint: 18.9°C (66°F) [RH = 38%]
Pressure (altimeter): 29.90 inches Hg (1012.6 mb)
[Sea-level pressure: 1012.4 mb]
Winds: from the WSW (240 degrees) at 5 MPH (4 knots; 2.1 m/s)
Visibility: 10 or more miles (16+ km)
Ceiling: at least 12,000 feet AGL
Clouds: sky clear below 12,000 feet AGL
Weather: no significant weather observed at this time

METAR text: KTCL 172153Z 30005KT 10SM CLR 37/17 A2991 RMK AO2 SLP126 T03670167
Conditions at: KTCL (TUSCALOOSA , AL, US) observed 2153 UTC 17 August 2019
Temperature: 36.7°C (98°F)
Dewpoint: 16.7°C (62°F) [RH = 31%]
Pressure (altimeter): 29.91 inches Hg (1013.0 mb)
[Sea-level pressure: 1012.6 mb]
Winds: from the WNW (300 degrees) at 6 MPH (5 knots; 2.6 m/s)
Visibility: 10 or more miles (16+ km)
Ceiling: at least 12,000 feet AGL
Clouds: sky clear below 12,000 feet AGL
Weather: no significant weather observed at this time

METAR text: KTCL 172053Z 26007KT 10SM CLR 37/17 A2991 RMK AO2 SLP125 T03670172 56022
Conditions at: KTCL (TUSCALOOSA , AL, US) observed 2053 UTC 17 August 2019
Temperature: 36.7°C (98°F)
Dewpoint: 17.2°C (63°F) [RH = 32%]
Pressure (altimeter): 29.91 inches Hg (1013.0 mb)
[Sea-level pressure: 1012.5 mb]
Winds: from the W (260 degrees) at 8 MPH (7 knots; 3.6 m/s)
Visibility: 10 or more miles (16+ km)
Ceiling: at least 12,000 feet AGL
Clouds: sky clear below 12,000 feet AGL
Weather: no significant weather observed at this time

METAR text: KTCL 171953Z 28005KT 10SM CLR 36/17 A2993 RMK AO2 SLP132 T03610167
Conditions at: KTCL (TUSCALOOSA , AL, US) observed 1953 UTC 17 August 2019
Temperature: 36.1°C (97°F)
Dewpoint: 16.7°C (62°F) [RH = 32%]
Pressure (altimeter): 29.93 inches Hg (1013.6 mb)
[Sea-level pressure: 1013.2 mb]
Winds: from the W (280 degrees) at 6 MPH (5 knots; 2.6 m/s)
Visibility: 10 or more miles (16+ km)
Ceiling: at least 12,000 feet AGL
Clouds: sky clear below 12,000 feet AGL
Weather: no significant weather observed at this time

METAR text: KTCL 171853Z VRB05KT 10SM CLR 36/18 A2995 RMK AO2 SLP139 T03610178
Conditions at: KTCL (TUSCALOOSA , AL, US) observed 1853 UTC 17 August 2019
Temperature: 36.1°C (97°F)
Dewpoint: 17.8°C (64°F) [RH = 34%]
Pressure (altimeter): 29.95 inches Hg (1014.3 mb)
[Sea-level pressure: 1013.9 mb]
Winds: variable direction winds at 6 MPH (5 knots; 2.6 m/s)
Visibility: 10 or more miles (16+ km)
Ceiling: at least 12,000 feet AGL
Clouds: sky clear below 12,000 feet AGL
Weather: no significant weather observed at this time

METAR text: KTCL 171753Z 24006KT 10SM CLR 36/17 A2997 RMK AO2 SLP148 T03560172 10356 20206 58012
Conditions at: KTCL (TUSCALOOSA , AL, US) observed 1753 UTC 17 August 2019
Temperature: 35.6°C (96°F)
Dewpoint: 17.2°C (63°F) [RH = 34%]
Pressure (altimeter): 29.97 inches Hg (1015.0 mb)
[Sea-level pressure: 1014.8 mb]
Winds: from the WSW (240 degrees) at 7 MPH (6 knots; 3.1 m/s)
Visibility: 10 or more miles (16+ km)
Ceiling: at least 12,000 feet AGL
Clouds: sky clear below 12,000 feet AGL
Weather: no significant weather observed at this time

METAR text: KTCL 171653Z 00000KT 10SM CLR 34/18 A3000 RMK AO2 SLP156 T03440178
Conditions at: KTCL (TUSCALOOSA , AL, US) observed 1653 UTC 17 August 2019
Temperature: 34.4°C (94°F)
Dewpoint: 17.8°C (64°F) [RH = 37%]
Pressure (altimeter): 30.00 inches Hg (1016.0 mb)
[Sea-level pressure: 1015.6 mb]
Winds: calm
Visibility: 10 or more miles (16+ km)
Ceiling: at least 12,000 feet AGL
Clouds: sky clear below 12,000 feet AGL
Weather: no significant weather observed at this time

METAR text: KTCL 171553Z 22003KT 10SM CLR 32/19 A3001 RMK AO2 SLP161 T03220194
Conditions at: KTCL (TUSCALOOSA , AL, US) observed 1553 UTC 17 August 2019
Temperature: 32.2°C (90°F)
Dewpoint: 19.4°C (67°F) [RH = 47%]
Pressure (altimeter): 30.01 inches Hg (1016.3 mb)
[Sea-level pressure: 1016.1 mb]
Winds: from the SW (220 degrees) at 3 MPH (3 knots; 1.5 m/s)
Visibility: 10 or more miles (16+ km)
Ceiling: at least 12,000 feet AGL
Clouds: sky clear below 12,000 feet AGL
Weather: no significant weather observed at this time

Forecast for: KTCL (TUSCALOOSA , AL, US)
Text: KTCL 182330Z 1900/1924 26006KT P6SM FEW060
Forecast period: 0000 to 0100 UTC 19 August 2019
Forecast type: FROM: standard forecast or significant change
Winds: from the W (260 degrees) at 7 MPH (6 knots; 3.1 m/s)
Visibility: 6 or more miles 10+ km)
Ceiling: at least 12,000 feet AGL
Clouds: few clouds at 6000 feet AGL
Weather: no significant weather forecast for this period
Text: FM190100 00000KT P6SM SCT250
Forecast period: 0100 to 1500 UTC 19 August 2019
Forecast type: FROM: standard forecast or significant change
Winds: calm
Visibility: 6 or more miles 10+ km)
Ceiling: at least 12,000 feet AGL
Clouds: scattered clouds at 25000 feet AGL
Weather: no significant weather forecast for this period
Text: FM191500 VRB05KT P6SM SCT060
Forecast period: 1500 UTC 19 August 2019 to 0000 UTC 20 August 2019
Forecast type: FROM: standard forecast or significant change
Winds: variable direction winds at 6 MPH (5 knots; 2.6 m/s)
Visibility: 6 or more miles 10+ km)
Ceiling: at least 12,000 feet AGL
Clouds: scattered clouds at 6000 feet AGL
Weather: no significant weather forecast for this period